sensor_id;sensor_type;location;lat;lon;timestamp;temperature;humidity
1614;DHT22;800;48.824;9.346;2023-05-20T00:00:24;20.30;50.50
1614;DHT22;800;48.824;9.346;2023-05-20T00:02:50;20.30;50.50
1614;DHT22;800;48.824;9.346;2023-05-20T00:05:15;20.20;50.40
1614;DHT22;800;48.824;9.346;2023-05-20T00:07:41;20.20;50.70
1614;DHT22;800;48.824;9.346;2023-05-20T00:10:07;20.20;50.80
1614;DHT22;800;48.824;9.346;2023-05-20T00:12:32;20.10;50.90
1614;DHT22;800;48.824;9.346;2023-05-20T00:15:00;20.10;51.00
1614;DHT22;800;48.824;9.346;2023-05-20T00:17:26;20.00;51.00
1614;DHT22;800;48.824;9.346;2023-05-20T00:19:53;20.00;51.30
1614;DHT22;800;48.824;9.346;2023-05-20T00:22:18;20.00;51.20
1614;DHT22;800;48.824;9.346;2023-05-20T00:24:44;20.00;51.00
1614;DHT22;800;48.824;9.346;2023-05-20T00:27:09;20.00;51.00
1614;DHT22;800;48.824;9.346;2023-05-20T00:29:35;19.90;51.20
1614;DHT22;800;48.824;9.346;2023-05-20T00:32:01;19.90;51.30
1614;DHT22;800;48.824;9.346;2023-05-20T00:34:26;19.90;51.20
1614;DHT22;800;48.824;9.346;2023-05-20T00:36:52;19.90;51.10
1614;DHT22;800;48.824;9.346;2023-05-20T00:39:18;19.90;51.20
1614;DHT22;800;48.824;9.346;2023-05-20T00:41:43;19.90;51.30
1614;DHT22;800;48.824;9.346;2023-05-20T00:44:09;19.90;51.40
1614;DHT22;800;48.824;9.346;2023-05-20T00:46:35;19.90;51.40
1614;DHT22;800;48.824;9.346;2023-05-20T00:49:01;19.90;51.50
1614;DHT22;800;48.824;9.346;2023-05-20T00:51:27;19.90;51.60
1614;DHT22;800;48.824;9.346;2023-05-20T00:53:54;19.90;51.60
1614;DHT22;800;48.824;9.346;2023-05-20T00:56:20;20.00;51.40
1614;DHT22;800;48.824;9.346;2023-05-20T00:58:46;20.00;51.30
1614;DHT22;800;48.824;9.346;2023-05-20T01:01:12;20.00;51.30
1614;DHT22;800;48.824;9.346;2023-05-20T01:03:38;20.00;51.20
1614;DHT22;800;48.824;9.346;2023-05-20T01:06:04;20.00;51.40
1614;DHT22;800;48.824;9.346;2023-05-20T01:08:29;19.90;51.40
1614;DHT22;800;48.824;9.346;2023-05-20T01:11:15;19.90;51.50
1614;DHT22;800;48.824;9.346;2023-05-20T01:13:46;19.90;51.60
1614;DHT22;800;48.824;9.346;2023-05-20T01:16:17;19.90;51.70
1614;DHT22;800;48.824;9.346;2023-05-20T01:18:43;19.90;51.70
1614;DHT22;800;48.824;9.346;2023-05-20T01:21:12;20.00;51.70
1614;DHT22;800;48.824;9.346;2023-05-20T01:23:40;20.00;51.60
1614;DHT22;800;48.824;9.346;2023-05-20T01:26:07;20.00;51.60
1614;DHT22;800;48.824;9.346;2023-05-20T01:28:34;19.90;51.70
1614;DHT22;800;48.824;9.346;2023-05-20T01:31:01;19.90;51.80
1614;DHT22;800;48.824;9.346;2023-05-20T01:33:30;19.80;51.90
1614;DHT22;800;48.824;9.346;2023-05-20T01:35:57;19.80;51.90
1614;DHT22;800;48.824;9.346;2023-05-20T01:38:24;19.80;51.90
1614;DHT22;800;48.824;9.346;2023-05-20T01:40:50;19.90;52.00
1614;DHT22;800;48.824;9.346;2023-05-20T01:43:16;19.90;52.00
1614;DHT22;800;48.824;9.346;2023-05-20T01:45:43;19.90;51.80
1614;DHT22;800;48.824;9.346;2023-05-20T01:48:13;19.90;51.70
1614;DHT22;800;48.824;9.346;2023-05-20T01:50:39;19.90;51.80
1614;DHT22;800;48.824;9.346;2023-05-20T01:53:05;19.90;51.70
1614;DHT22;800;48.824;9.346;2023-05-20T01:55:34;19.90;51.50
1614;DHT22;800;48.824;9.346;2023-05-20T01:57:59;19.90;51.70
1614;DHT22;800;48.824;9.346;2023-05-20T02:00:25;19.90;51.50
1614;DHT22;800;48.824;9.346;2023-05-20T02:02:51;19.90;51.70
1614;DHT22;800;48.824;9.346;2023-05-20T02:05:16;19.80;51.70
1614;DHT22;800;48.824;9.346;2023-05-20T02:07:42;19.80;51.60
1614;DHT22;800;48.824;9.346;2023-05-20T02:10:08;19.80;51.50
1614;DHT22;800;48.824;9.346;2023-05-20T02:12:33;19.80;51.60
1614;DHT22;800;48.824;9.346;2023-05-20T02:14:59;19.80;51.60
1614;DHT22;800;48.824;9.346;2023-05-20T02:17:25;19.80;51.60
1614;DHT22;800;48.824;9.346;2023-05-20T02:19:51;19.80;51.60
1614;DHT22;800;48.824;9.346;2023-05-20T02:22:17;19.80;51.80
1614;DHT22;800;48.824;9.346;2023-05-20T02:24:43;19.70;51.70
1614;DHT22;800;48.824;9.346;2023-05-20T02:27:08;19.80;51.90
1614;DHT22;800;48.824;9.346;2023-05-20T02:29:34;19.80;51.80
1614;DHT22;800;48.824;9.346;2023-05-20T02:32:00;19.70;51.70
1614;DHT22;800;48.824;9.346;2023-05-20T02:34:26;19.70;51.80
1614;DHT22;800;48.824;9.346;2023-05-20T02:36:52;19.70;51.90
1614;DHT22;800;48.824;9.346;2023-05-20T02:39:18;19.70;51.80
1614;DHT22;800;48.824;9.346;2023-05-20T02:41:44;19.70;51.80
1614;DHT22;800;48.824;9.346;2023-05-20T02:44:09;19.70;51.90
1614;DHT22;800;48.824;9.346;2023-05-20T02:46:35;19.70;52.10
1614;DHT22;800;48.824;9.346;2023-05-20T02:49:00;19.70;52.10
1614;DHT22;800;48.824;9.346;2023-05-20T02:51:26;19.70;52.10
1614;DHT22;800;48.824;9.346;2023-05-20T02:53:52;19.70;52.30
1614;DHT22;800;48.824;9.346;2023-05-20T02:56:17;19.80;52.30
1614;DHT22;800;48.824;9.346;2023-05-20T02:58:46;19.80;52.20
1614;DHT22;800;48.824;9.346;2023-05-20T03:01:12;19.90;52.00
1614;DHT22;800;48.824;9.346;2023-05-20T03:03:38;20.00;52.00
1614;DHT22;800;48.824;9.346;2023-05-20T03:06:05;20.00;51.90
1614;DHT22;800;48.824;9.346;2023-05-20T03:08:32;20.00;51.70
1614;DHT22;800;48.824;9.346;2023-05-20T03:10:59;20.00;51.60
1614;DHT22;800;48.824;9.346;2023-05-20T03:13:24;20.00;51.40
1614;DHT22;800;48.824;9.346;2023-05-20T03:15:50;19.90;51.70
1614;DHT22;800;48.824;9.346;2023-05-20T03:18:16;19.90;51.70
1614;DHT22;800;48.824;9.346;2023-05-20T03:20:41;19.90;51.70
1614;DHT22;800;48.824;9.346;2023-05-20T03:23:08;19.90;51.70
1614;DHT22;800;48.824;9.346;2023-05-20T03:25:34;19.90;51.70
1614;DHT22;800;48.824;9.346;2023-05-20T03:27:59;19.90;51.60
1614;DHT22;800;48.824;9.346;2023-05-20T03:30:26;19.90;51.60
1614;DHT22;800;48.824;9.346;2023-05-20T03:32:52;20.00;51.60
1614;DHT22;800;48.824;9.346;2023-05-20T03:35:18;20.00;51.70
1614;DHT22;800;48.824;9.346;2023-05-20T03:37:44;20.00;51.60
1614;DHT22;800;48.824;9.346;2023-05-20T03:40:10;20.00;51.40
1614;DHT22;800;48.824;9.346;2023-05-20T03:42:36;20.00;51.40
1614;DHT22;800;48.824;9.346;2023-05-20T03:45:03;20.00;51.50
1614;DHT22;800;48.824;9.346;2023-05-20T03:47:29;20.00;51.70
1614;DHT22;800;48.824;9.346;2023-05-20T03:49:54;20.00;51.60
1614;DHT22;800;48.824;9.346;2023-05-20T03:52:20;20.00;51.50
1614;DHT22;800;48.824;9.346;2023-05-20T03:54:46;20.00;51.50
1614;DHT22;800;48.824;9.346;2023-05-20T03:57:12;20.00;51.40
1614;DHT22;800;48.824;9.346;2023-05-20T03:59:37;20.10;51.60
1614;DHT22;800;48.824;9.346;2023-05-20T04:02:04;20.00;51.50
1614;DHT22;800;48.824;9.346;2023-05-20T04:04:29;20.00;51.60
1614;DHT22;800;48.824;9.346;2023-05-20T04:06:55;20.00;51.50
1614;DHT22;800;48.824;9.346;2023-05-20T04:09:21;20.00;51.60
1614;DHT22;800;48.824;9.346;2023-05-20T04:11:47;19.90;51.60
1614;DHT22;800;48.824;9.346;2023-05-20T04:14:13;19.90;51.60
1614;DHT22;800;48.824;9.346;2023-05-20T04:16:39;19.90;51.70
1614;DHT22;800;48.824;9.346;2023-05-20T04:19:05;19.80;51.70
1614;DHT22;800;48.824;9.346;2023-05-20T04:21:31;19.80;51.90
1614;DHT22;800;48.824;9.346;2023-05-20T04:23:57;19.80;52.90
1614;DHT22;800;48.824;9.346;2023-05-20T04:26:22;19.80;52.30
1614;DHT22;800;48.824;9.346;2023-05-20T04:28:48;19.90;52.00
1614;DHT22;800;48.824;9.346;2023-05-20T04:31:14;19.90;51.90
1614;DHT22;800;48.824;9.346;2023-05-20T04:33:40;19.90;51.90
1614;DHT22;800;48.824;9.346;2023-05-20T04:36:06;19.90;52.00
1614;DHT22;800;48.824;9.346;2023-05-20T04:38:32;20.00;52.10
1614;DHT22;800;48.824;9.346;2023-05-20T04:40:58;19.90;52.10
1614;DHT22;800;48.824;9.346;2023-05-20T04:43:24;20.00;51.90
1614;DHT22;800;48.824;9.346;2023-05-20T04:45:51;20.00;51.80
1614;DHT22;800;48.824;9.346;2023-05-20T04:48:19;20.10;51.70
1614;DHT22;800;48.824;9.346;2023-05-20T04:50:47;20.10;52.00
1614;DHT22;800;48.824;9.346;2023-05-20T04:53:14;20.10;51.70
1614;DHT22;800;48.824;9.346;2023-05-20T04:55:40;20.10;52.00
1614;DHT22;800;48.824;9.346;2023-05-20T04:58:05;20.10;51.90
1614;DHT22;800;48.824;9.346;2023-05-20T05:00:32;20.10;52.00
1614;DHT22;800;48.824;9.346;2023-05-20T05:02:59;20.20;52.20
1614;DHT22;800;48.824;9.346;2023-05-20T05:05:25;20.20;52.30
1614;DHT22;800;48.824;9.346;2023-05-20T05:07:51;20.20;52.10
1614;DHT22;800;48.824;9.346;2023-05-20T05:10:16;20.10;51.90
1614;DHT22;800;48.824;9.346;2023-05-20T05:12:42;20.00;52.30
1614;DHT22;800;48.824;9.346;2023-05-20T05:15:08;20.00;52.30
1614;DHT22;800;48.824;9.346;2023-05-20T05:17:34;20.10;52.30
1614;DHT22;800;48.824;9.346;2023-05-20T05:20:00;20.10;52.20
1614;DHT22;800;48.824;9.346;2023-05-20T05:22:26;20.10;52.20
1614;DHT22;800;48.824;9.346;2023-05-20T05:24:51;20.10;52.40
1614;DHT22;800;48.824;9.346;2023-05-20T05:27:17;20.10;52.60
1614;DHT22;800;48.824;9.346;2023-05-20T05:29:43;20.20;52.70
1614;DHT22;800;48.824;9.346;2023-05-20T05:32:08;20.10;52.70
1614;DHT22;800;48.824;9.346;2023-05-20T05:34:34;20.10;52.60
1614;DHT22;800;48.824;9.346;2023-05-20T05:37:00;20.20;52.70
1614;DHT22;800;48.824;9.346;2023-05-20T05:39:25;20.10;52.50
1614;DHT22;800;48.824;9.346;2023-05-20T05:41:51;20.20;52.70
1614;DHT22;800;48.824;9.346;2023-05-20T05:44:18;20.10;52.80
1614;DHT22;800;48.824;9.346;2023-05-20T05:46:44;20.20;52.80
1614;DHT22;800;48.824;9.346;2023-05-20T05:49:09;20.30;52.90
1614;DHT22;800;48.824;9.346;2023-05-20T05:51:35;20.30;52.90
1614;DHT22;800;48.824;9.346;2023-05-20T05:54:01;20.30;53.10
1614;DHT22;800;48.824;9.346;2023-05-20T05:56:26;20.40;53.10
1614;DHT22;800;48.824;9.346;2023-05-20T05:58:52;20.40;53.00
1614;DHT22;800;48.824;9.346;2023-05-20T06:01:17;20.50;52.80
1614;DHT22;800;48.824;9.346;2023-05-20T06:03:43;20.60;52.80
1614;DHT22;800;48.824;9.346;2023-05-20T06:06:09;20.60;52.80
1614;DHT22;800;48.824;9.346;2023-05-20T06:08:34;20.60;53.00
1614;DHT22;800;48.824;9.346;2023-05-20T06:11:00;20.70;53.00
1614;DHT22;800;48.824;9.346;2023-05-20T06:13:25;20.70;52.80
1614;DHT22;800;48.824;9.346;2023-05-20T06:15:51;20.90;52.90
1614;DHT22;800;48.824;9.346;2023-05-20T06:18:18;20.80;52.90
1614;DHT22;800;48.824;9.346;2023-05-20T06:20:43;20.80;53.40
1614;DHT22;800;48.824;9.346;2023-05-20T06:23:09;20.90;53.40
1614;DHT22;800;48.824;9.346;2023-05-20T06:25:34;20.70;53.00
1614;DHT22;800;48.824;9.346;2023-05-20T06:28:00;20.80;53.00
1614;DHT22;800;48.824;9.346;2023-05-20T06:30:26;20.90;53.30
1614;DHT22;800;48.824;9.346;2023-05-20T06:32:52;21.00;53.20
1614;DHT22;800;48.824;9.346;2023-05-20T06:35:17;21.00;53.10
1614;DHT22;800;48.824;9.346;2023-05-20T06:37:43;20.90;53.10
1614;DHT22;800;48.824;9.346;2023-05-20T06:40:09;20.70;53.20
1614;DHT22;800;48.824;9.346;2023-05-20T06:42:34;20.40;54.20
1614;DHT22;800;48.824;9.346;2023-05-20T06:45:00;20.50;54.20
1614;DHT22;800;48.824;9.346;2023-05-20T06:47:25;20.40;54.50
1614;DHT22;800;48.824;9.346;2023-05-20T06:49:51;20.50;54.20
1614;DHT22;800;48.824;9.346;2023-05-20T06:52:17;20.30;54.50
1614;DHT22;800;48.824;9.346;2023-05-20T06:54:42;19.90;55.20
1614;DHT22;800;48.824;9.346;2023-05-20T06:57:08;20.30;55.00
1614;DHT22;800;48.824;9.346;2023-05-20T06:59:35;20.40;54.40
1614;DHT22;800;48.824;9.346;2023-05-20T07:02:01;20.60;54.10
1614;DHT22;800;48.824;9.346;2023-05-20T07:04:27;21.00;53.30
1614;DHT22;800;48.824;9.346;2023-05-20T07:06:52;21.20;53.00
1614;DHT22;800;48.824;9.346;2023-05-20T07:09:18;21.50;52.80
1614;DHT22;800;48.824;9.346;2023-05-20T07:11:43;21.30;52.80
1614;DHT22;800;48.824;9.346;2023-05-20T07:14:09;21.30;52.60
1614;DHT22;800;48.824;9.346;2023-05-20T07:16:35;21.60;52.50
1614;DHT22;800;48.824;9.346;2023-05-20T07:19:02;21.50;52.20
1614;DHT22;800;48.824;9.346;2023-05-20T07:21:27;21.20;53.10
1614;DHT22;800;48.824;9.346;2023-05-20T07:23:53;21.00;53.60
1614;DHT22;800;48.824;9.346;2023-05-20T07:26:18;20.90;53.60
1614;DHT22;800;48.824;9.346;2023-05-20T07:28:44;21.00;53.40
1614;DHT22;800;48.824;9.346;2023-05-20T07:31:11;21.30;53.00
1614;DHT22;800;48.824;9.346;2023-05-20T07:33:37;21.60;52.60
1614;DHT22;800;48.824;9.346;2023-05-20T07:36:03;21.80;52.70
1614;DHT22;800;48.824;9.346;2023-05-20T07:38:28;22.00;51.80
1614;DHT22;800;48.824;9.346;2023-05-20T07:40:54;22.10;52.90
1614;DHT22;800;48.824;9.346;2023-05-20T07:43:20;22.20;52.40
1614;DHT22;800;48.824;9.346;2023-05-20T07:45:45;22.30;51.50
1614;DHT22;800;48.824;9.346;2023-05-20T07:48:11;22.50;51.90
1614;DHT22;800;48.824;9.346;2023-05-20T07:50:37;22.60;51.20
1614;DHT22;800;48.824;9.346;2023-05-20T07:53:04;22.70;50.50
1614;DHT22;800;48.824;9.346;2023-05-20T07:55:32;22.70;49.90
1614;DHT22;800;48.824;9.346;2023-05-20T07:57:58;22.90;49.80
1614;DHT22;800;48.824;9.346;2023-05-20T08:00:23;23.00;49.60
1614;DHT22;800;48.824;9.346;2023-05-20T08:02:49;22.90;49.10
1614;DHT22;800;48.824;9.346;2023-05-20T08:05:15;22.90;49.20
1614;DHT22;800;48.824;9.346;2023-05-20T08:07:40;22.90;48.90
1614;DHT22;800;48.824;9.346;2023-05-20T08:10:07;22.80;49.20
1614;DHT22;800;48.824;9.346;2023-05-20T08:12:32;22.80;49.30
1614;DHT22;800;48.824;9.346;2023-05-20T08:14:58;23.00;49.20
1614;DHT22;800;48.824;9.346;2023-05-20T08:17:23;23.00;48.70
1614;DHT22;800;48.824;9.346;2023-05-20T08:19:49;23.30;48.70
1614;DHT22;800;48.824;9.346;2023-05-20T08:22:15;23.40;49.00
1614;DHT22;800;48.824;9.346;2023-05-20T08:24:40;23.50;48.90
1614;DHT22;800;48.824;9.346;2023-05-20T08:27:06;23.80;49.00
1614;DHT22;800;48.824;9.346;2023-05-20T08:29:32;23.80;47.80
1614;DHT22;800;48.824;9.346;2023-05-20T08:31:57;23.80;47.90
1614;DHT22;800;48.824;9.346;2023-05-20T08:34:23;23.90;48.50
1614;DHT22;800;48.824;9.346;2023-05-20T08:36:48;23.60;47.70
1614;DHT22;800;48.824;9.346;2023-05-20T08:39:14;23.50;47.70
1614;DHT22;800;48.824;9.346;2023-05-20T08:41:40;23.70;48.10
1614;DHT22;800;48.824;9.346;2023-05-20T08:44:07;23.90;48.50
1614;DHT22;800;48.824;9.346;2023-05-20T08:46:34;24.00;48.20
1614;DHT22;800;48.824;9.346;2023-05-20T08:49:01;24.00;47.40
1614;DHT22;800;48.824;9.346;2023-05-20T08:51:28;24.20;47.30
1614;DHT22;800;48.824;9.346;2023-05-20T08:53:58;23.70;47.10
1614;DHT22;800;48.824;9.346;2023-05-20T08:56:25;23.70;48.20
1614;DHT22;800;48.824;9.346;2023-05-20T08:58:51;23.70;48.00
1614;DHT22;800;48.824;9.346;2023-05-20T09:01:18;24.10;48.00
1614;DHT22;800;48.824;9.346;2023-05-20T09:03:43;24.50;47.80
1614;DHT22;800;48.824;9.346;2023-05-20T09:06:09;24.80;46.70
1614;DHT22;800;48.824;9.346;2023-05-20T09:08:35;25.00;46.80
1614;DHT22;800;48.824;9.346;2023-05-20T09:11:02;25.30;46.70
1614;DHT22;800;48.824;9.346;2023-05-20T09:13:30;25.70;45.70
1614;DHT22;800;48.824;9.346;2023-05-20T09:15:59;25.90;44.20
1614;DHT22;800;48.824;9.346;2023-05-20T09:18:25;26.10;43.70
1614;DHT22;800;48.824;9.346;2023-05-20T09:20:51;26.20;44.60
1614;DHT22;800;48.824;9.346;2023-05-20T09:23:20;26.30;44.20
1614;DHT22;800;48.824;9.346;2023-05-20T09:25:50;26.60;44.10
1614;DHT22;800;48.824;9.346;2023-05-20T09:28:21;26.70;42.40
1614;DHT22;800;48.824;9.346;2023-05-20T09:30:49;26.90;42.90
1614;DHT22;800;48.824;9.346;2023-05-20T09:33:16;26.90;43.00
1614;DHT22;800;48.824;9.346;2023-05-20T09:35:42;27.00;43.40
1614;DHT22;800;48.824;9.346;2023-05-20T09:38:09;27.00;42.80
1614;DHT22;800;48.824;9.346;2023-05-20T09:40:35;27.10;43.10
1614;DHT22;800;48.824;9.346;2023-05-20T09:43:07;27.10;42.40
1614;DHT22;800;48.824;9.346;2023-05-20T09:45:36;27.20;42.60
1614;DHT22;800;48.824;9.346;2023-05-20T09:48:03;27.30;42.80
1614;DHT22;800;48.824;9.346;2023-05-20T09:50:30;27.30;42.50
1614;DHT22;800;48.824;9.346;2023-05-20T09:53:01;27.20;43.10
1614;DHT22;800;48.824;9.346;2023-05-20T09:55:27;27.20;42.60
1614;DHT22;800;48.824;9.346;2023-05-20T09:57:53;27.20;42.60
1614;DHT22;800;48.824;9.346;2023-05-20T10:00:20;27.20;41.80
1614;DHT22;800;48.824;9.346;2023-05-20T10:02:50;27.30;41.40
1614;DHT22;800;48.824;9.346;2023-05-20T10:05:34;27.40;41.90
1614;DHT22;800;48.824;9.346;2023-05-20T10:11:18;27.40;42.00
1614;DHT22;800;48.824;9.346;2023-05-20T10:16:33;27.40;42.00
1614;DHT22;800;48.824;9.346;2023-05-20T10:21:44;27.30;41.80
1614;DHT22;800;48.824;9.346;2023-05-20T10:24:09;27.60;41.00
1614;DHT22;800;48.824;9.346;2023-05-20T10:26:40;27.90;40.60
1614;DHT22;800;48.824;9.346;2023-05-20T10:29:16;28.10;39.00
1614;DHT22;800;48.824;9.346;2023-05-20T10:31:50;27.70;38.60
1614;DHT22;800;48.824;9.346;2023-05-20T10:34:18;27.20;40.20
1614;DHT22;800;48.824;9.346;2023-05-20T10:39:24;27.20;40.30
1614;DHT22;800;48.824;9.346;2023-05-20T10:41:50;27.30;40.20
1614;DHT22;800;48.824;9.346;2023-05-20T10:44:16;27.40;39.70
1614;DHT22;800;48.824;9.346;2023-05-20T10:46:42;27.80;40.10
1614;DHT22;800;48.824;9.346;2023-05-20T10:49:17;27.80;38.90
1614;DHT22;800;48.824;9.346;2023-05-20T10:51:46;27.80;38.80
1614;DHT22;800;48.824;9.346;2023-05-20T10:54:12;28.00;38.90
1614;DHT22;800;48.824;9.346;2023-05-20T10:56:39;27.50;39.10
1614;DHT22;800;48.824;9.346;2023-05-20T10:59:14;27.60;39.00
1614;DHT22;800;48.824;9.346;2023-05-20T11:01:41;27.50;39.30
1614;DHT22;800;48.824;9.346;2023-05-20T11:04:07;28.00;40.00
1614;DHT22;800;48.824;9.346;2023-05-20T11:06:33;28.10;37.80
1614;DHT22;800;48.824;9.346;2023-05-20T11:09:03;28.10;38.00
1614;DHT22;800;48.824;9.346;2023-05-20T11:11:32;28.30;37.80
1614;DHT22;800;48.824;9.346;2023-05-20T11:13:57;28.40;38.00
1614;DHT22;800;48.824;9.346;2023-05-20T11:16:25;28.50;37.40
1614;DHT22;800;48.824;9.346;2023-05-20T11:18:50;28.70;37.60
1614;DHT22;800;48.824;9.346;2023-05-20T11:21:17;28.80;37.30
1614;DHT22;800;48.824;9.346;2023-05-20T11:23:43;28.70;36.60
1614;DHT22;800;48.824;9.346;2023-05-20T11:26:09;28.80;36.50
1614;DHT22;800;48.824;9.346;2023-05-20T11:28:35;28.60;37.00
1614;DHT22;800;48.824;9.346;2023-05-20T11:31:01;28.40;37.70
1614;DHT22;800;48.824;9.346;2023-05-20T11:33:26;28.60;37.90
1614;DHT22;800;48.824;9.346;2023-05-20T11:35:53;28.80;37.70
1614;DHT22;800;48.824;9.346;2023-05-20T11:38:19;29.20;36.80
1614;DHT22;800;48.824;9.346;2023-05-20T11:40:53;29.20;36.30
1614;DHT22;800;48.824;9.346;2023-05-20T11:43:20;29.00;36.40
1614;DHT22;800;48.824;9.346;2023-05-20T11:45:55;28.90;35.80
1614;DHT22;800;48.824;9.346;2023-05-20T11:48:23;28.90;36.10
1614;DHT22;800;48.824;9.346;2023-05-20T11:50:49;29.10;36.40
1614;DHT22;800;48.824;9.346;2023-05-20T11:53:20;29.30;36.60
1614;DHT22;800;48.824;9.346;2023-05-20T11:58:18;29.10;35.60
1614;DHT22;800;48.824;9.346;2023-05-20T12:00:43;29.10;36.60
1614;DHT22;800;48.824;9.346;2023-05-20T12:03:09;29.40;36.10
1614;DHT22;800;48.824;9.346;2023-05-20T12:05:36;29.50;35.40
1614;DHT22;800;48.824;9.346;2023-05-20T12:08:01;29.60;35.00
1614;DHT22;800;48.824;9.346;2023-05-20T12:10:28;29.50;35.00
1614;DHT22;800;48.824;9.346;2023-05-20T12:12:53;29.30;35.40
1614;DHT22;800;48.824;9.346;2023-05-20T12:15:19;29.40;36.40
1614;DHT22;800;48.824;9.346;2023-05-20T12:17:50;29.40;35.90
1614;DHT22;800;48.824;9.346;2023-05-20T12:20:17;29.30;35.40
1614;DHT22;800;48.824;9.346;2023-05-20T12:22:46;29.40;35.70
1614;DHT22;800;48.824;9.346;2023-05-20T12:25:13;29.30;35.80
1614;DHT22;800;48.824;9.346;2023-05-20T12:27:40;29.20;35.50
1614;DHT22;800;48.824;9.346;2023-05-20T12:30:06;29.40;35.80
1614;DHT22;800;48.824;9.346;2023-05-20T12:32:32;29.40;35.90
1614;DHT22;800;48.824;9.346;2023-05-20T12:34:58;29.30;35.40
1614;DHT22;800;48.824;9.346;2023-05-20T12:37:23;29.10;35.60
1614;DHT22;800;48.824;9.346;2023-05-20T12:39:49;29.20;36.10
1614;DHT22;800;48.824;9.346;2023-05-20T12:42:15;29.00;35.80
1614;DHT22;800;48.824;9.346;2023-05-20T12:44:40;28.80;35.50
1614;DHT22;800;48.824;9.346;2023-05-20T12:47:07;29.00;36.00
1614;DHT22;800;48.824;9.346;2023-05-20T12:49:32;29.20;35.80
1614;DHT22;800;48.824;9.346;2023-05-20T12:51:58;29.20;36.60
1614;DHT22;800;48.824;9.346;2023-05-20T12:54:24;29.10;37.80
1614;DHT22;800;48.824;9.346;2023-05-20T12:56:53;29.10;38.10
1614;DHT22;800;48.824;9.346;2023-05-20T12:59:18;29.00;37.30
1614;DHT22;800;48.824;9.346;2023-05-20T13:01:44;29.10;37.50
1614;DHT22;800;48.824;9.346;2023-05-20T13:04:09;29.10;36.60
1614;DHT22;800;48.824;9.346;2023-05-20T13:06:35;29.10;36.40
1614;DHT22;800;48.824;9.346;2023-05-20T13:09:01;29.10;36.10
1614;DHT22;800;48.824;9.346;2023-05-20T13:11:26;29.20;35.70
1614;DHT22;800;48.824;9.346;2023-05-20T13:13:55;29.20;35.90
1614;DHT22;800;48.824;9.346;2023-05-20T13:16:24;29.40;35.30
1614;DHT22;800;48.824;9.346;2023-05-20T13:18:49;29.60;34.70
1614;DHT22;800;48.824;9.346;2023-05-20T13:21:15;29.60;35.50
1614;DHT22;800;48.824;9.346;2023-05-20T13:23:41;29.80;35.60
1614;DHT22;800;48.824;9.346;2023-05-20T13:26:07;29.90;34.60
1614;DHT22;800;48.824;9.346;2023-05-20T13:28:33;29.90;34.60
1614;DHT22;800;48.824;9.346;2023-05-20T13:31:01;30.00;33.90
1614;DHT22;800;48.824;9.346;2023-05-20T13:33:27;30.00;33.30
1614;DHT22;800;48.824;9.346;2023-05-20T13:35:52;30.00;33.60
1614;DHT22;800;48.824;9.346;2023-05-20T13:38:18;29.80;34.10
1614;DHT22;800;48.824;9.346;2023-05-20T13:40:44;29.90;34.40
1614;DHT22;800;48.824;9.346;2023-05-20T13:43:09;30.10;34.00
1614;DHT22;800;48.824;9.346;2023-05-20T13:45:35;30.10;34.90
1614;DHT22;800;48.824;9.346;2023-05-20T13:48:00;29.90;34.20
1614;DHT22;800;48.824;9.346;2023-05-20T13:50:26;29.80;34.70
1614;DHT22;800;48.824;9.346;2023-05-20T13:52:51;29.80;34.70
1614;DHT22;800;48.824;9.346;2023-05-20T13:55:17;29.70;34.80
1614;DHT22;800;48.824;9.346;2023-05-20T13:57:43;29.70;35.00
1614;DHT22;800;48.824;9.346;2023-05-20T14:00:09;29.40;35.20
1614;DHT22;800;48.824;9.346;2023-05-20T14:02:35;29.10;35.50
1614;DHT22;800;48.824;9.346;2023-05-20T14:05:00;28.80;36.10
1614;DHT22;800;48.824;9.346;2023-05-20T14:07:26;28.80;37.30
1614;DHT22;800;48.824;9.346;2023-05-20T14:09:52;28.80;36.80
1614;DHT22;800;48.824;9.346;2023-05-20T14:12:18;28.60;36.10
1614;DHT22;800;48.824;9.346;2023-05-20T14:14:43;28.80;35.90
1614;DHT22;800;48.824;9.346;2023-05-20T14:17:09;28.90;35.80
1614;DHT22;800;48.824;9.346;2023-05-20T14:19:35;28.80;35.90
1614;DHT22;800;48.824;9.346;2023-05-20T14:22:00;28.80;35.90
1614;DHT22;800;48.824;9.346;2023-05-20T14:24:27;28.90;36.00
1614;DHT22;800;48.824;9.346;2023-05-20T14:26:53;29.20;35.80
1614;DHT22;800;48.824;9.346;2023-05-20T14:29:18;29.40;36.10
1614;DHT22;800;48.824;9.346;2023-05-20T14:31:44;29.60;34.50
1614;DHT22;800;48.824;9.346;2023-05-20T14:34:10;29.70;34.20
1614;DHT22;800;48.824;9.346;2023-05-20T14:36:35;29.90;34.90
1614;DHT22;800;48.824;9.346;2023-05-20T14:39:01;30.00;35.10
1614;DHT22;800;48.824;9.346;2023-05-20T14:41:27;30.00;35.20
1614;DHT22;800;48.824;9.346;2023-05-20T14:43:53;30.10;35.00
1614;DHT22;800;48.824;9.346;2023-05-20T14:46:18;30.10;35.10
1614;DHT22;800;48.824;9.346;2023-05-20T14:48:44;29.80;34.50
1614;DHT22;800;48.824;9.346;2023-05-20T14:51:09;29.70;34.30
1614;DHT22;800;48.824;9.346;2023-05-20T14:53:35;29.50;34.20
1614;DHT22;800;48.824;9.346;2023-05-20T14:56:01;29.50;35.00
1614;DHT22;800;48.824;9.346;2023-05-20T14:58:26;29.50;34.80
1614;DHT22;800;48.824;9.346;2023-05-20T15:00:52;29.60;34.40
1614;DHT22;800;48.824;9.346;2023-05-20T15:03:17;29.50;33.80
1614;DHT22;800;48.824;9.346;2023-05-20T15:05:43;29.30;34.00
1614;DHT22;800;48.824;9.346;2023-05-20T15:08:09;29.20;34.10
1614;DHT22;800;48.824;9.346;2023-05-20T15:10:35;29.40;35.20
1614;DHT22;800;48.824;9.346;2023-05-20T15:13:00;29.20;34.50
1614;DHT22;800;48.824;9.346;2023-05-20T15:15:26;29.00;35.00
1614;DHT22;800;48.824;9.346;2023-05-20T15:17:52;29.00;35.30
1614;DHT22;800;48.824;9.346;2023-05-20T15:20:17;29.00;35.30
1614;DHT22;800;48.824;9.346;2023-05-20T15:22:43;29.00;35.30
1614;DHT22;800;48.824;9.346;2023-05-20T15:25:12;29.00;35.20
1614;DHT22;800;48.824;9.346;2023-05-20T15:27:38;29.00;35.30
1614;DHT22;800;48.824;9.346;2023-05-20T15:30:05;29.20;35.60
1614;DHT22;800;48.824;9.346;2023-05-20T15:32:30;29.20;35.40
1614;DHT22;800;48.824;9.346;2023-05-20T15:34:56;29.10;35.20
1614;DHT22;800;48.824;9.346;2023-05-20T15:37:21;29.10;35.30
1614;DHT22;800;48.824;9.346;2023-05-20T15:39:47;29.20;35.60
1614;DHT22;800;48.824;9.346;2023-05-20T15:42:13;29.30;35.30
1614;DHT22;800;48.824;9.346;2023-05-20T15:44:43;29.30;35.50
1614;DHT22;800;48.824;9.346;2023-05-20T15:47:08;29.20;35.60
1614;DHT22;800;48.824;9.346;2023-05-20T15:49:34;29.10;35.70
1614;DHT22;800;48.824;9.346;2023-05-20T15:52:00;28.80;35.80
1614;DHT22;800;48.824;9.346;2023-05-20T15:54:25;28.70;36.00
1614;DHT22;800;48.824;9.346;2023-05-20T15:56:51;28.70;36.00
1614;DHT22;800;48.824;9.346;2023-05-20T15:59:16;28.80;36.10
1614;DHT22;800;48.824;9.346;2023-05-20T16:01:42;29.00;35.70
1614;DHT22;800;48.824;9.346;2023-05-20T16:04:08;29.30;35.90
1614;DHT22;800;48.824;9.346;2023-05-20T16:06:33;29.30;35.20
1614;DHT22;800;48.824;9.346;2023-05-20T16:09:00;29.50;35.10
1614;DHT22;800;48.824;9.346;2023-05-20T16:11:26;29.70;35.00
1614;DHT22;800;48.824;9.346;2023-05-20T16:13:51;29.80;35.00
1614;DHT22;800;48.824;9.346;2023-05-20T16:16:17;29.80;35.30
1614;DHT22;800;48.824;9.346;2023-05-20T16:18:42;29.80;35.30
1614;DHT22;800;48.824;9.346;2023-05-20T16:21:08;30.00;35.30
1614;DHT22;800;48.824;9.346;2023-05-20T16:23:33;30.10;35.00